sensor_id;sensor_type;location;lat;lon;timestamp;temperature;humidity
13405;DHT22;6773;51.192;7.024;2022-11-20T00:03:14;2.60;99.90
13405;DHT22;6773;51.192;7.024;2022-11-20T00:05:39;2.60;99.90
13405;DHT22;6773;51.192;7.024;2022-11-20T00:08:05;2.70;99.90
13405;DHT22;6773;51.192;7.024;2022-11-20T00:13:00;2.80;99.90
13405;DHT22;6773;51.192;7.024;2022-11-20T00:17:51;2.70;99.90
13405;DHT22;6773;51.192;7.024;2022-11-20T00:22:43;2.70;99.90
13405;DHT22;6773;51.192;7.024;2022-11-20T00:25:09;2.80;99.90
13405;DHT22;6773;51.192;7.024;2022-11-20T00:27:34;2.70;99.90
13405;DHT22;6773;51.192;7.024;2022-11-20T00:30:00;2.70;99.90
13405;DHT22;6773;51.192;7.024;2022-11-20T00:32:25;2.70;99.90
13405;DHT22;6773;51.192;7.024;2022-11-20T00:37:17;2.80;99.90
13405;DHT22;6773;51.192;7.024;2022-11-20T00:39:42;2.90;99.90
13405;DHT22;6773;51.192;7.024;2022-11-20T00:42:08;2.80;99.90
13405;DHT22;6773;51.192;7.024;2022-11-20T00:44:34;2.70;99.90
13405;DHT22;6773;51.192;7.024;2022-11-20T00:46:59;2.70;99.90
13405;DHT22;6773;51.192;7.024;2022-11-20T00:49:25;2.70;99.90
13405;DHT22;6773;51.192;7.024;2022-11-20T00:51:50;2.60;99.90
13405;DHT22;6773;51.192;7.024;2022-11-20T00:54:16;2.70;99.90
13405;DHT22;6773;51.192;7.024;2022-11-20T00:59:09;2.60;99.90
13405;DHT22;6773;51.192;7.024;2022-11-20T01:01:36;2.60;99.90
13405;DHT22;6773;51.192;7.024;2022-11-20T01:06:33;2.60;99.90
13405;DHT22;6773;51.192;7.024;2022-11-20T01:09:03;2.60;99.90
13405;DHT22;6773;51.192;7.024;2022-11-20T01:11:31;2.60;99.90
13405;DHT22;6773;51.192;7.024;2022-11-20T01:13:58;2.60;99.90
13405;DHT22;6773;51.192;7.024;2022-11-20T01:16:27;2.60;99.90
13405;DHT22;6773;51.192;7.024;2022-11-20T01:18:55;2.70;99.90
13405;DHT22;6773;51.192;7.024;2022-11-20T01:21:27;2.60;99.90
13405;DHT22;6773;51.192;7.024;2022-11-20T01:23:53;2.70;99.90
13405;DHT22;6773;51.192;7.024;2022-11-20T01:26:21;2.70;99.90
13405;DHT22;6773;51.192;7.024;2022-11-20T01:28:47;2.60;99.90
13405;DHT22;6773;51.192;7.024;2022-11-20T01:31:38;2.70;99.90
13405;DHT22;6773;51.192;7.024;2022-11-20T01:34:05;2.60;99.90
13405;DHT22;6773;51.192;7.024;2022-11-20T01:36:32;2.70;99.90
13405;DHT22;6773;51.192;7.024;2022-11-20T01:39:00;2.70;99.90
13405;DHT22;6773;51.192;7.024;2022-11-20T01:41:29;2.80;99.90
13405;DHT22;6773;51.192;7.024;2022-11-20T01:44:15;2.80;99.90
13405;DHT22;6773;51.192;7.024;2022-11-20T01:52:12;2.70;99.90
13405;DHT22;6773;51.192;7.024;2022-11-20T01:54:46;2.70;99.90
13405;DHT22;6773;51.192;7.024;2022-11-20T01:57:13;2.70;99.90
13405;DHT22;6773;51.192;7.024;2022-11-20T01:59:46;2.70;99.90
13405;DHT22;6773;51.192;7.024;2022-11-20T02:02:13;2.70;99.90
13405;DHT22;6773;51.192;7.024;2022-11-20T02:07:05;2.50;99.90
13405;DHT22;6773;51.192;7.024;2022-11-20T02:09:31;2.60;99.90
13405;DHT22;6773;51.192;7.024;2022-11-20T02:11:57;2.60;99.90
13405;DHT22;6773;51.192;7.024;2022-11-20T02:14:24;2.60;99.90
13405;DHT22;6773;51.192;7.024;2022-11-20T02:19:30;2.60;99.90
13405;DHT22;6773;51.192;7.024;2022-11-20T02:24:22;2.70;99.90
13405;DHT22;6773;51.192;7.024;2022-11-20T02:26:59;2.60;99.90
13405;DHT22;6773;51.192;7.024;2022-11-20T02:29:39;2.60;99.90
13405;DHT22;6773;51.192;7.024;2022-11-20T02:32:06;2.50;99.90
13405;DHT22;6773;51.192;7.024;2022-11-20T02:34:32;2.60;99.90
13405;DHT22;6773;51.192;7.024;2022-11-20T02:36:59;2.60;99.90
13405;DHT22;6773;51.192;7.024;2022-11-20T02:39:26;2.60;99.90
13405;DHT22;6773;51.192;7.024;2022-11-20T02:41:56;2.50;99.90
13405;DHT22;6773;51.192;7.024;2022-11-20T02:49:14;2.60;99.90
13405;DHT22;6773;51.192;7.024;2022-11-20T03:01:25;2.30;99.90
13405;DHT22;6773;51.192;7.024;2022-11-20T03:08:45;2.40;99.90
13405;DHT22;6773;51.192;7.024;2022-11-20T03:13:37;2.60;99.90
13405;DHT22;6773;51.192;7.024;2022-11-20T03:16:14;2.60;99.90
13405;DHT22;6773;51.192;7.024;2022-11-20T03:18:41;2.60;99.90
13405;DHT22;6773;51.192;7.024;2022-11-20T03:21:08;2.70;99.90
13405;DHT22;6773;51.192;7.024;2022-11-20T03:23:34;2.70;99.90
13405;DHT22;6773;51.192;7.024;2022-11-20T03:26:17;2.70;99.90
13405;DHT22;6773;51.192;7.024;2022-11-20T03:28:51;2.80;99.90
13405;DHT22;6773;51.192;7.024;2022-11-20T03:31:20;2.80;99.90
13405;DHT22;6773;51.192;7.024;2022-11-20T03:33:46;2.70;99.90
13405;DHT22;6773;51.192;7.024;2022-11-20T03:36:14;2.80;99.90
13405;DHT22;6773;51.192;7.024;2022-11-20T03:38:41;2.70;99.90
13405;DHT22;6773;51.192;7.024;2022-11-20T03:41:09;2.70;99.90
13405;DHT22;6773;51.192;7.024;2022-11-20T03:43:35;2.70;99.90
13405;DHT22;6773;51.192;7.024;2022-11-20T03:46:01;2.60;99.90
13405;DHT22;6773;51.192;7.024;2022-11-20T03:48:27;2.60;99.90
13405;DHT22;6773;51.192;7.024;2022-11-20T03:51:25;2.60;99.90
13405;DHT22;6773;51.192;7.024;2022-11-20T03:53:53;2.60;99.90
13405;DHT22;6773;51.192;7.024;2022-11-20T03:56:23;2.50;99.90
13405;DHT22;6773;51.192;7.024;2022-11-20T03:58:49;2.40;99.90
13405;DHT22;6773;51.192;7.024;2022-11-20T04:01:20;2.40;99.90
13405;DHT22;6773;51.192;7.024;2022-11-20T04:03:47;2.30;99.90
13405;DHT22;6773;51.192;7.024;2022-11-20T04:06:15;2.30;99.90
13405;DHT22;6773;51.192;7.024;2022-11-20T04:08:41;2.40;99.90
13405;DHT22;6773;51.192;7.024;2022-11-20T04:11:16;2.30;99.90
13405;DHT22;6773;51.192;7.024;2022-11-20T04:13:46;2.40;99.90
13405;DHT22;6773;51.192;7.024;2022-11-20T04:16:13;2.40;99.90
13405;DHT22;6773;51.192;7.024;2022-11-20T04:18:38;2.30;99.90
13405;DHT22;6773;51.192;7.024;2022-11-20T04:21:04;2.30;99.90
13405;DHT22;6773;51.192;7.024;2022-11-20T04:23:31;2.40;99.90
13405;DHT22;6773;51.192;7.024;2022-11-20T04:26:08;2.40;99.90
13405;DHT22;6773;51.192;7.024;2022-11-20T04:28:34;2.40;99.90
13405;DHT22;6773;51.192;7.024;2022-11-20T04:33:34;2.40;99.90
13405;DHT22;6773;51.192;7.024;2022-11-20T04:36:09;3.70;99.90
13405;DHT22;6773;51.192;7.024;2022-11-20T04:38:36;2.40;99.90
13405;DHT22;6773;51.192;7.024;2022-11-20T04:41:04;2.40;99.90
13405;DHT22;6773;51.192;7.024;2022-11-20T04:43:30;2.40;99.90
13405;DHT22;6773;51.192;7.024;2022-11-20T04:45:57;2.40;99.90
13405;DHT22;6773;51.192;7.024;2022-11-20T04:48:24;2.40;99.90
13405;DHT22;6773;51.192;7.024;2022-11-20T04:53:16;2.50;99.90
13405;DHT22;6773;51.192;7.024;2022-11-20T04:55:42;2.50;99.90
13405;DHT22;6773;51.192;7.024;2022-11-20T04:58:07;2.60;99.90
13405;DHT22;6773;51.192;7.024;2022-11-20T05:00:33;2.60;99.90
13405;DHT22;6773;51.192;7.024;2022-11-20T05:02:59;2.60;99.90
13405;DHT22;6773;51.192;7.024;2022-11-20T05:05:24;2.60;99.90
13405;DHT22;6773;51.192;7.024;2022-11-20T05:07:50;2.60;99.90
13405;DHT22;6773;51.192;7.024;2022-11-20T05:10:15;2.50;99.90
13405;DHT22;6773;51.192;7.024;2022-11-20T05:12:41;2.50;99.90
13405;DHT22;6773;51.192;7.024;2022-11-20T05:17:33;2.50;99.90
13405;DHT22;6773;51.192;7.024;2022-11-20T05:19:59;2.40;99.90
13405;DHT22;6773;51.192;7.024;2022-11-20T05:22:24;2.50;99.90
13405;DHT22;6773;51.192;7.024;2022-11-20T05:24:50;2.60;99.90
13405;DHT22;6773;51.192;7.024;2022-11-20T05:27:15;2.60;99.90
13405;DHT22;6773;51.192;7.024;2022-11-20T05:32:07;2.60;99.90
13405;DHT22;6773;51.192;7.024;2022-11-20T05:34:35;2.70;99.90
13405;DHT22;6773;51.192;7.024;2022-11-20T05:37:01;2.70;99.90
13405;DHT22;6773;51.192;7.024;2022-11-20T05:39:27;2.60;99.90
13405;DHT22;6773;51.192;7.024;2022-11-20T05:41:52;2.70;99.90
13405;DHT22;6773;51.192;7.024;2022-11-20T05:44:38;2.60;99.90
13405;DHT22;6773;51.192;7.024;2022-11-20T05:47:04;2.60;99.90
13405;DHT22;6773;51.192;7.024;2022-11-20T05:49:30;2.60;99.90
13405;DHT22;6773;51.192;7.024;2022-11-20T05:51:55;2.60;99.90
13405;DHT22;6773;51.192;7.024;2022-11-20T05:54:21;2.60;99.90
13405;DHT22;6773;51.192;7.024;2022-11-20T05:56:47;2.60;99.90
13405;DHT22;6773;51.192;7.024;2022-11-20T05:59:12;2.60;99.90
13405;DHT22;6773;51.192;7.024;2022-11-20T06:01:38;2.60;99.90
13405;DHT22;6773;51.192;7.024;2022-11-20T06:04:03;2.50;99.90
13405;DHT22;6773;51.192;7.024;2022-11-20T06:08:55;2.60;99.90
13405;DHT22;6773;51.192;7.024;2022-11-20T06:11:21;2.60;99.90
13405;DHT22;6773;51.192;7.024;2022-11-20T06:13:47;2.70;99.90
13405;DHT22;6773;51.192;7.024;2022-11-20T06:16:15;2.70;99.90
13405;DHT22;6773;51.192;7.024;2022-11-20T06:18:41;2.70;99.90
13405;DHT22;6773;51.192;7.024;2022-11-20T06:21:12;2.70;99.90
13405;DHT22;6773;51.192;7.024;2022-11-20T06:23:38;2.70;99.90
13405;DHT22;6773;51.192;7.024;2022-11-20T06:26:05;2.70;99.90
13405;DHT22;6773;51.192;7.024;2022-11-20T06:28:31;2.70;99.90
13405;DHT22;6773;51.192;7.024;2022-11-20T06:30:58;2.70;99.90
13405;DHT22;6773;51.192;7.024;2022-11-20T06:33:23;2.70;99.90
13405;DHT22;6773;51.192;7.024;2022-11-20T06:35:49;2.70;99.90
13405;DHT22;6773;51.192;7.024;2022-11-20T06:38:15;2.70;99.90
13405;DHT22;6773;51.192;7.024;2022-11-20T06:40:41;2.70;99.90
13405;DHT22;6773;51.192;7.024;2022-11-20T06:43:08;2.70;99.90
13405;DHT22;6773;51.192;7.024;2022-11-20T06:47:59;2.70;99.90
13405;DHT22;6773;51.192;7.024;2022-11-20T06:50:25;2.70;99.90
13405;DHT22;6773;51.192;7.024;2022-11-20T06:52:50;2.70;99.90
13405;DHT22;6773;51.192;7.024;2022-11-20T06:57:42;2.70;99.90
13405;DHT22;6773;51.192;7.024;2022-11-20T07:00:09;2.70;99.90
13405;DHT22;6773;51.192;7.024;2022-11-20T07:02:34;2.70;99.90
13405;DHT22;6773;51.192;7.024;2022-11-20T07:07:26;2.70;99.90
13405;DHT22;6773;51.192;7.024;2022-11-20T07:09:51;2.70;99.90
13405;DHT22;6773;51.192;7.024;2022-11-20T07:12:17;2.70;99.90
13405;DHT22;6773;51.192;7.024;2022-11-20T07:14:42;2.60;99.90
13405;DHT22;6773;51.192;7.024;2022-11-20T07:17:08;2.50;99.90
13405;DHT22;6773;51.192;7.024;2022-11-20T07:19:34;2.50;99.90
13405;DHT22;6773;51.192;7.024;2022-11-20T07:21:59;2.40;99.90
13405;DHT22;6773;51.192;7.024;2022-11-20T07:24:25;2.50;99.90
13405;DHT22;6773;51.192;7.024;2022-11-20T07:29:16;2.50;99.90
13405;DHT22;6773;51.192;7.024;2022-11-20T07:31:42;2.50;99.90
13405;DHT22;6773;51.192;7.024;2022-11-20T07:34:08;2.50;99.90
13405;DHT22;6773;51.192;7.024;2022-11-20T07:36:34;2.50;99.90
13405;DHT22;6773;51.192;7.024;2022-11-20T07:38:59;2.50;99.90
13405;DHT22;6773;51.192;7.024;2022-11-20T07:41:25;2.50;99.90
13405;DHT22;6773;51.192;7.024;2022-11-20T07:43:51;2.50;99.90
13405;DHT22;6773;51.192;7.024;2022-11-20T07:46:16;2.60;99.90
13405;DHT22;6773;51.192;7.024;2022-11-20T07:48:42;2.60;99.90
13405;DHT22;6773;51.192;7.024;2022-11-20T07:53:34;2.60;99.90
13405;DHT22;6773;51.192;7.024;2022-11-20T07:56:00;2.70;99.90
13405;DHT22;6773;51.192;7.024;2022-11-20T07:58:29;2.70;99.90
13405;DHT22;6773;51.192;7.024;2022-11-20T08:00:54;2.80;99.90
13405;DHT22;6773;51.192;7.024;2022-11-20T08:03:20;2.70;99.90
13405;DHT22;6773;51.192;7.024;2022-11-20T08:05:45;2.80;99.90
13405;DHT22;6773;51.192;7.024;2022-11-20T08:08:11;2.70;99.90
13405;DHT22;6773;51.192;7.024;2022-11-20T08:13:03;3.20;99.90
13405;DHT22;6773;51.192;7.024;2022-11-20T08:15:50;3.70;99.90
13405;DHT22;6773;51.192;7.024;2022-11-20T08:18:16;4.10;99.90
13405;DHT22;6773;51.192;7.024;2022-11-20T08:20:42;4.60;99.90
13405;DHT22;6773;51.192;7.024;2022-11-20T08:23:08;5.10;99.90
13405;DHT22;6773;51.192;7.024;2022-11-20T08:25:35;5.20;99.90
13405;DHT22;6773;51.192;7.024;2022-11-20T08:28:07;4.60;99.90
13405;DHT22;6773;51.192;7.024;2022-11-20T08:30:33;4.10;99.90
13405;DHT22;6773;51.192;7.024;2022-11-20T08:33:07;3.80;99.90
13405;DHT22;6773;51.192;7.024;2022-11-20T08:35:35;3.70;99.90
13405;DHT22;6773;51.192;7.024;2022-11-20T08:38:02;3.40;99.90
13405;DHT22;6773;51.192;7.024;2022-11-20T08:40:27;3.30;99.90
13405;DHT22;6773;51.192;7.024;2022-11-20T08:45:19;3.20;99.90
13405;DHT22;6773;51.192;7.024;2022-11-20T08:47:45;3.20;99.90
13405;DHT22;6773;51.192;7.024;2022-11-20T08:50:13;3.30;99.90
13405;DHT22;6773;51.192;7.024;2022-11-20T08:52:39;3.30;99.90
13405;DHT22;6773;51.192;7.024;2022-11-20T08:55:05;3.50;99.90
13405;DHT22;6773;51.192;7.024;2022-11-20T08:57:38;3.60;99.90
13405;DHT22;6773;51.192;7.024;2022-11-20T09:00:05;3.60;99.90
13405;DHT22;6773;51.192;7.024;2022-11-20T09:02:31;3.60;99.90
13405;DHT22;6773;51.192;7.024;2022-11-20T09:04:57;3.60;99.90
13405;DHT22;6773;51.192;7.024;2022-11-20T09:07:23;3.70;99.90
13405;DHT22;6773;51.192;7.024;2022-11-20T09:12:15;3.90;99.90
13405;DHT22;6773;51.192;7.024;2022-11-20T09:14:41;4.00;99.90
13405;DHT22;6773;51.192;7.024;2022-11-20T09:17:06;3.90;99.90
13405;DHT22;6773;51.192;7.024;2022-11-20T09:19:33;3.90;99.90
13405;DHT22;6773;51.192;7.024;2022-11-20T09:26:51;4.00;99.90
13405;DHT22;6773;51.192;7.024;2022-11-20T09:29:17;4.00;99.90
13405;DHT22;6773;51.192;7.024;2022-11-20T09:31:42;4.00;99.90
13405;DHT22;6773;51.192;7.024;2022-11-20T09:34:08;4.00;99.90
13405;DHT22;6773;51.192;7.024;2022-11-20T09:36:33;3.90;99.90
13405;DHT22;6773;51.192;7.024;2022-11-20T09:47:30;3.80;99.90
13405;DHT22;6773;51.192;7.024;2022-11-20T09:50:14;3.70;99.90
13405;DHT22;6773;51.192;7.024;2022-11-20T09:55:41;3.80;99.90
13405;DHT22;6773;51.192;7.024;2022-11-20T09:58:21;3.80;99.90
13405;DHT22;6773;51.192;7.024;2022-11-20T10:00:49;3.90;99.90
13405;DHT22;6773;51.192;7.024;2022-11-20T10:03:39;4.00;99.90
13405;DHT22;6773;51.192;7.024;2022-11-20T10:06:11;4.10;99.90
13405;DHT22;6773;51.192;7.024;2022-11-20T10:19:55;4.20;99.90
13405;DHT22;6773;51.192;7.024;2022-11-20T10:25:15;4.60;99.90
13405;DHT22;6773;51.192;7.024;2022-11-20T10:30:23;4.60;99.90
13405;DHT22;6773;51.192;7.024;2022-11-20T10:33:21;4.50;99.90
13405;DHT22;6773;51.192;7.024;2022-11-20T10:35:59;4.30;99.90
13405;DHT22;6773;51.192;7.024;2022-11-20T10:38:43;4.30;99.90
13405;DHT22;6773;51.192;7.024;2022-11-20T10:41:19;4.20;99.90
13405;DHT22;6773;51.192;7.024;2022-11-20T10:46:34;4.00;99.90
13405;DHT22;6773;51.192;7.024;2022-11-20T10:49:05;4.00;99.90
13405;DHT22;6773;51.192;7.024;2022-11-20T10:51:52;3.90;99.90
13405;DHT22;6773;51.192;7.024;2022-11-20T10:54:43;3.80;99.90
13405;DHT22;6773;51.192;7.024;2022-11-20T10:57:27;3.80;99.90
13405;DHT22;6773;51.192;7.024;2022-11-20T11:05:04;3.80;99.90
13405;DHT22;6773;51.192;7.024;2022-11-20T11:07:37;3.70;99.90
13405;DHT22;6773;51.192;7.024;2022-11-20T11:15:39;3.80;99.90
13405;DHT22;6773;51.192;7.024;2022-11-20T11:18:09;3.80;99.90
13405;DHT22;6773;51.192;7.024;2022-11-20T11:23:01;3.70;99.90
13405;DHT22;6773;51.192;7.024;2022-11-20T11:25:29;3.80;99.90
13405;DHT22;6773;51.192;7.024;2022-11-20T11:27:58;3.80;99.90
13405;DHT22;6773;51.192;7.024;2022-11-20T11:30:26;3.90;99.90
13405;DHT22;6773;51.192;7.024;2022-11-20T11:33:06;3.90;99.90
13405;DHT22;6773;51.192;7.024;2022-11-20T11:35:32;3.90;99.90
13405;DHT22;6773;51.192;7.024;2022-11-20T11:38:06;3.80;99.90
13405;DHT22;6773;51.192;7.024;2022-11-20T11:40:39;3.80;99.90
13405;DHT22;6773;51.192;7.024;2022-11-20T11:43:07;3.70;99.90
13405;DHT22;6773;51.192;7.024;2022-11-20T11:46:01;3.80;99.90
13405;DHT22;6773;51.192;7.024;2022-11-20T11:50:52;3.80;99.90
13405;DHT22;6773;51.192;7.024;2022-11-20T11:53:21;3.90;99.90
13405;DHT22;6773;51.192;7.024;2022-11-20T11:56:08;3.90;99.90
13405;DHT22;6773;51.192;7.024;2022-11-20T11:58:47;3.90;99.90
13405;DHT22;6773;51.192;7.024;2022-11-20T12:01:38;3.90;99.90
13405;DHT22;6773;51.192;7.024;2022-11-20T12:07:38;4.00;99.90
13405;DHT22;6773;51.192;7.024;2022-11-20T12:10:09;4.20;99.90
13405;DHT22;6773;51.192;7.024;2022-11-20T12:12:42;4.20;99.90
13405;DHT22;6773;51.192;7.024;2022-11-20T12:15:11;4.20;99.90
13405;DHT22;6773;51.192;7.024;2022-11-20T12:17:38;4.20;99.90
13405;DHT22;6773;51.192;7.024;2022-11-20T12:20:14;4.20;99.90
13405;DHT22;6773;51.192;7.024;2022-11-20T12:22:55;4.30;99.90
13405;DHT22;6773;51.192;7.024;2022-11-20T12:25:33;4.20;99.90
13405;DHT22;6773;51.192;7.024;2022-11-20T12:41:14;4.30;99.90
13405;DHT22;6773;51.192;7.024;2022-11-20T12:44:36;4.40;99.90
13405;DHT22;6773;51.192;7.024;2022-11-20T12:59:02;4.40;99.90
13405;DHT22;6773;51.192;7.024;2022-11-20T13:04:39;4.50;99.90
13405;DHT22;6773;51.192;7.024;2022-11-20T13:07:12;4.50;99.90
13405;DHT22;6773;51.192;7.024;2022-11-20T13:09:45;4.50;99.90
13405;DHT22;6773;51.192;7.024;2022-11-20T13:18:09;4.40;99.90
13405;DHT22;6773;51.192;7.024;2022-11-20T13:20:17;4.40;99.90
13405;DHT22;6773;51.192;7.024;2022-11-20T13:25:32;4.30;99.90
13405;DHT22;6773;51.192;7.024;2022-11-20T13:28:01;4.40;99.90
13405;DHT22;6773;51.192;7.024;2022-11-20T13:30:30;4.30;99.90
13405;DHT22;6773;51.192;7.024;2022-11-20T13:33:08;4.30;99.90
13405;DHT22;6773;51.192;7.024;2022-11-20T13:35:37;4.30;99.90
13405;DHT22;6773;51.192;7.024;2022-11-20T13:40:50;4.40;99.90
13405;DHT22;6773;51.192;7.024;2022-11-20T13:46:01;4.40;99.90
13405;DHT22;6773;51.192;7.024;2022-11-20T13:48:34;4.40;99.90
13405;DHT22;6773;51.192;7.024;2022-11-20T13:51:11;4.40;99.90
13405;DHT22;6773;51.192;7.024;2022-11-20T13:54:09;4.70;99.90
13405;DHT22;6773;51.192;7.024;2022-11-20T14:01:48;4.60;99.90
13405;DHT22;6773;51.192;7.024;2022-11-20T14:04:20;4.60;99.90
13405;DHT22;6773;51.192;7.024;2022-11-20T14:06:48;4.60;99.90
13405;DHT22;6773;51.192;7.024;2022-11-20T14:09:34;4.60;99.90
13405;DHT22;6773;51.192;7.024;2022-11-20T14:12:01;4.60;99.90
13405;DHT22;6773;51.192;7.024;2022-11-20T14:14:29;4.50;99.90
13405;DHT22;6773;51.192;7.024;2022-11-20T14:17:15;4.50;99.90
13405;DHT22;6773;51.192;7.024;2022-11-20T14:19:44;4.60;99.90
13405;DHT22;6773;51.192;7.024;2022-11-20T14:24:59;5.50;99.90
13405;DHT22;6773;51.192;7.024;2022-11-20T14:27:25;4.40;99.90
13405;DHT22;6773;51.192;7.024;2022-11-20T14:29:51;4.40;99.90
13405;DHT22;6773;51.192;7.024;2022-11-20T14:32:19;4.50;99.90
13405;DHT22;6773;51.192;7.024;2022-11-20T14:34:47;4.50;99.90
13405;DHT22;6773;51.192;7.024;2022-11-20T14:37:27;4.50;99.90
13405;DHT22;6773;51.192;7.024;2022-11-20T14:39:55;4.50;99.90
13405;DHT22;6773;51.192;7.024;2022-11-20T14:42:24;4.60;99.90
13405;DHT22;6773;51.192;7.024;2022-11-20T14:44:51;4.60;99.90
13405;DHT22;6773;51.192;7.024;2022-11-20T14:47:29;4.60;99.90
13405;DHT22;6773;51.192;7.024;2022-11-20T14:49:55;4.60;99.90
13405;DHT22;6773;51.192;7.024;2022-11-20T14:52:23;4.60;99.90
13405;DHT22;6773;51.192;7.024;2022-11-20T14:54:51;4.50;99.90
13405;DHT22;6773;51.192;7.024;2022-11-20T15:00:24;4.60;99.90
13405;DHT22;6773;51.192;7.024;2022-11-20T15:02:50;4.60;99.90
13405;DHT22;6773;51.192;7.024;2022-11-20T15:05:18;4.50;99.90
13405;DHT22;6773;51.192;7.024;2022-11-20T15:07:47;4.60;99.90
13405;DHT22;6773;51.192;7.024;2022-11-20T15:10:26;4.60;99.90
13405;DHT22;6773;51.192;7.024;2022-11-20T15:12:55;4.60;99.90
13405;DHT22;6773;51.192;7.024;2022-11-20T15:16:08;4.60;99.90
13405;DHT22;6773;51.192;7.024;2022-11-20T15:18:16;4.60;99.90
13405;DHT22;6773;51.192;7.024;2022-11-20T15:20:42;4.70;99.90
13405;DHT22;6773;51.192;7.024;2022-11-20T15:23:16;4.60;99.90
13405;DHT22;6773;51.192;7.024;2022-11-20T15:25:47;4.60;99.90
13405;DHT22;6773;51.192;7.024;2022-11-20T15:30:43;4.70;99.90
13405;DHT22;6773;51.192;7.024;2022-11-20T15:33:09;4.70;99.90
13405;DHT22;6773;51.192;7.024;2022-11-20T15:38:01;4.70;99.90
13405;DHT22;6773;51.192;7.024;2022-11-20T15:40:27;4.70;99.90
13405;DHT22;6773;51.192;7.024;2022-11-20T15:45:40;4.70;99.90
13405;DHT22;6773;51.192;7.024;2022-11-20T15:48:13;4.70;99.90
13405;DHT22;6773;51.192;7.024;2022-11-20T15:51:04;4.70;99.90
13405;DHT22;6773;51.192;7.024;2022-11-20T15:53:31;4.70;99.90
13405;DHT22;6773;51.192;7.024;2022-11-20T15:55:56;4.70;99.90
13405;DHT22;6773;51.192;7.024;2022-11-20T16:00:50;4.70;99.90
13405;DHT22;6773;51.192;7.024;2022-11-20T16:03:16;4.70;99.90
13405;DHT22;6773;51.192;7.024;2022-11-20T16:05:42;4.70;99.90
13405;DHT22;6773;51.192;7.024;2022-11-20T16:08:08;4.70;99.90
13405;DHT22;6773;51.192;7.024;2022-11-20T16:10:34;4.70;99.90
13405;DHT22;6773;51.192;7.024;2022-11-20T16:13:00;4.70;99.90
13405;DHT22;6773;51.192;7.024;2022-11-20T16:15:51;4.70;99.90
13405;DHT22;6773;51.192;7.024;2022-11-20T16:18:19;4.70;99.90
13405;DHT22;6773;51.192;7.024;2022-11-20T16:20:50;4.70;99.90
13405;DHT22;6773;51.192;7.024;2022-11-20T16:23:16;4.70;99.90
13405;DHT22;6773;51.192;7.024;2022-11-20T16:25:43;4.70;99.90
13405;DHT22;6773;51.192;7.024;2022-11-20T16:30:35;4.80;99.90
13405;DHT22;6773;51.192;7.024;2022-11-20T16:33:01;4.70;99.90
13405;DHT22;6773;51.192;7.024;2022-11-20T16:35:28;4.70;99.90
13405;DHT22;6773;51.192;7.024;2022-11-20T16:37:54;4.80;99.90
13405;DHT22;6773;51.192;7.024;2022-11-20T16:42:46;4.80;99.90
13405;DHT22;6773;51.192;7.024;2022-11-20T16:45:12;4.80;99.90
13405;DHT22;6773;51.192;7.024;2022-11-20T16:50:06;4.90;99.90
13405;DHT22;6773;51.192;7.024;2022-11-20T16:52:32;4.90;99.90
13405;DHT22;6773;51.192;7.024;2022-11-20T16:54:58;4.90;99.90
13405;DHT22;6773;51.192;7.024;2022-11-20T16:57:24;4.90;99.90
13405;DHT22;6773;51.192;7.024;2022-11-20T16:59:49;4.90;99.90
13405;DHT22;6773;51.192;7.024;2022-11-20T17:02:15;4.90;99.90
13405;DHT22;6773;51.192;7.024;2022-11-20T17:04:41;5.00;99.90
13405;DHT22;6773;51.192;7.024;2022-11-20T17:07:07;5.00;99.90
13405;DHT22;6773;51.192;7.024;2022-11-20T17:09:33;5.00;99.90
13405;DHT22;6773;51.192;7.024;2022-11-20T17:16:50;5.00;99.90
13405;DHT22;6773;51.192;7.024;2022-11-20T17:19:16;5.10;99.90
13405;DHT22;6773;51.192;7.024;2022-11-20T17:24:10;5.20;99.90
13405;DHT22;6773;51.192;7.024;2022-11-20T17:26:37;5.10;99.90
13405;DHT22;6773;51.192;7.024;2022-11-20T17:29:04;5.20;99.90
13405;DHT22;6773;51.192;7.024;2022-11-20T17:31:31;5.20;99.90
13405;DHT22;6773;51.192;7.024;2022-11-20T17:33:58;5.20;99.90
13405;DHT22;6773;51.192;7.024;2022-11-20T17:36:27;5.20;99.90
13405;DHT22;6773;51.192;7.024;2022-11-20T17:38:53;5.10;99.90
13405;DHT22;6773;51.192;7.024;2022-11-20T17:41:21;5.20;99.90
13405;DHT22;6773;51.192;7.024;2022-11-20T17:43:48;5.20;99.90
13405;DHT22;6773;51.192;7.024;2022-11-20T17:46:16;5.10;99.90
13405;DHT22;6773;51.192;7.024;2022-11-20T17:48:43;5.20;99.90
13405;DHT22;6773;51.192;7.024;2022-11-20T17:51:17;5.30;99.90
13405;DHT22;6773;51.192;7.024;2022-11-20T17:53:49;5.20;99.90
13405;DHT22;6773;51.192;7.024;2022-11-20T17:59:09;5.30;99.90
13405;DHT22;6773;51.192;7.024;2022-11-20T18:06:29;5.20;99.90
13405;DHT22;6773;51.192;7.024;2022-11-20T18:08:58;5.30;99.90
13405;DHT22;6773;51.192;7.024;2022-11-20T18:11:27;5.30;99.90
13405;DHT22;6773;51.192;7.024;2022-11-20T18:13:58;5.30;99.90
13405;DHT22;6773;51.192;7.024;2022-11-20T18:16:48;5.30;99.90
13405;DHT22;6773;51.192;7.024;2022-11-20T18:19:17;5.30;99.90
13405;DHT22;6773;51.192;7.024;2022-11-20T18:21:43;5.30;99.90
13405;DHT22;6773;51.192;7.024;2022-11-20T18:24:09;5.30;99.90
13405;DHT22;6773;51.192;7.024;2022-11-20T18:26:35;5.30;99.90
13405;DHT22;6773;51.192;7.024;2022-11-20T18:29:01;5.40;99.90
13405;DHT22;6773;51.192;7.024;2022-11-20T18:36:22;5.50;99.90
13405;DHT22;6773;51.192;7.024;2022-11-20T18:38:50;5.40;99.90
13405;DHT22;6773;51.192;7.024;2022-11-20T18:41:18;5.50;99.90
13405;DHT22;6773;51.192;7.024;2022-11-20T18:44:03;5.50;99.90
13405;DHT22;6773;51.192;7.024;2022-11-20T18:46:48;5.50;99.90
13405;DHT22;6773;51.192;7.024;2022-11-20T18:49:14;5.50;99.90
13405;DHT22;6773;51.192;7.024;2022-11-20T18:51:40;5.60;99.90
13405;DHT22;6773;51.192;7.024;2022-11-20T18:56:34;5.60;99.90
13405;DHT22;6773;51.192;7.024;2022-11-20T18:59:04;5.60;99.90
13405;DHT22;6773;51.192;7.024;2022-11-20T19:01:29;5.60;99.90
13405;DHT22;6773;51.192;7.024;2022-11-20T19:03:55;5.70;99.90
13405;DHT22;6773;51.192;7.024;2022-11-20T19:06:21;5.80;99.90
13405;DHT22;6773;51.192;7.024;2022-11-20T19:13:40;6.00;99.90
13405;DHT22;6773;51.192;7.024;2022-11-20T19:16:14;6.10;99.90
13405;DHT22;6773;51.192;7.024;2022-11-20T19:18:41;6.20;99.90
13405;DHT22;6773;51.192;7.024;2022-11-20T19:21:11;6.20;99.90
13405;DHT22;6773;51.192;7.024;2022-11-20T19:26:04;6.20;99.90
13405;DHT22;6773;51.192;7.024;2022-11-20T19:28:31;6.30;99.90
13405;DHT22;6773;51.192;7.024;2022-11-20T19:31:02;6.30;99.90
13405;DHT22;6773;51.192;7.024;2022-11-20T19:35:54;6.30;99.90
13405;DHT22;6773;51.192;7.024;2022-11-20T19:48:05;6.40;99.90
13405;DHT22;6773;51.192;7.024;2022-11-20T19:50:31;6.40;99.90
13405;DHT22;6773;51.192;7.024;2022-11-20T19:52:57;6.40;99.90
13405;DHT22;6773;51.192;7.024;2022-11-20T20:00:15;6.50;99.90
13405;DHT22;6773;51.192;7.024;2022-11-20T20:02:41;6.60;99.90
13405;DHT22;6773;51.192;7.024;2022-11-20T20:05:06;6.60;99.90
13405;DHT22;6773;51.192;7.024;2022-11-20T20:07:32;6.70;99.90
13405;DHT22;6773;51.192;7.024;2022-11-20T20:09:57;6.70;99.90
13405;DHT22;6773;51.192;7.024;2022-11-20T20:12:23;6.80;99.90
13405;DHT22;6773;51.192;7.024;2022-11-20T20:14:48;6.80;99.90
13405;DHT22;6773;51.192;7.024;2022-11-20T20:19:40;6.80;99.90
13405;DHT22;6773;51.192;7.024;2022-11-20T20:22:05;6.90;99.90
13405;DHT22;6773;51.192;7.024;2022-11-20T20:24:31;6.90;99.90
13405;DHT22;6773;51.192;7.024;2022-11-20T20:26:57;7.00;99.90
13405;DHT22;6773;51.192;7.024;2022-11-20T20:29:22;6.90;99.90
13405;DHT22;6773;51.192;7.024;2022-11-20T20:31:48;7.00;99.90